Time;durP1;ratioP1;P1;durP2;ratioP2;P2;SDS_P1;SDS_P2;PMS_P1;PMS_P2;Temp;Humidity;BMP_temperature;BMP_pressure;BME280_temperature;BME280_humidity;BME280_pressure;Samples;Min_cycle;Max_cycle;Signal;HPM_P1;HPM_P2
2022/12/22 03:26:22;;;;;;;8.05;7.35;;;10.60;99.90;;;;;;5042400;28;20200;-39
2022/12/22 03:28:47;;;;;;;8.05;7.35;;;10.60;99.90;;;;;;5042320;28;20747;-39
2022/12/22 03:31:13;;;;;;;8.23;7.43;;;10.60;99.90;;;;;;5042255;28;20047;-37
2022/12/22 03:33:39;;;;;;;8.07;7.38;;;10.70;99.90;;;;;;5043119;28;20056;-40
2022/12/22 03:36:06;;;;;;;9.88;8.18;;;10.60;99.90;;;;;;5041832;28;20029;-40
2022/12/22 03:38:31;;;;;;;8.48;7.68;;;10.70;99.90;;;;;;5043072;28;20032;-41
2022/12/22 03:40:57;;;;;;;9.07;8.20;;;10.70;99.90;;;;;;5042922;28;20781;-39
2022/12/22 03:46:31;;;;;;;7.75;7.05;;;10.70;99.90;;;;;;5041686;28;20099;-40
2022/12/22 03:49:09;;;;;;;8.07;7.38;;;10.60;99.90;;;;;;5041750;28;20033;-37
2022/12/22 03:51:44;;;;;;;8.52;7.72;;;10.60;99.90;;;;;;5043006;28;20516;-41
2022/12/22 03:54:12;;;;;;;8.27;7.47;;;10.70;99.90;;;;;;5042460;28;20488;-40
2022/12/22 03:56:38;;;;;;;8.73;7.90;;;10.70;99.90;;;;;;5041911;28;20029;-40
2022/12/22 03:59:05;;;;;;;8.90;8.10;;;10.70;99.90;;;;;;5042205;28;20021;-40
2022/12/22 04:01:32;;;;;;;9.18;8.38;;;10.70;99.90;;;;;;5042225;28;20552;-40
2022/12/22 04:03:57;;;;;;;9.18;8.38;;;10.70;99.90;;;;;;5041515;28;20025;-39
2022/12/22 04:06:23;;;;;;;9.73;8.73;;;10.70;99.90;;;;;;5042738;28;20035;-41
2022/12/22 04:08:49;;;;;;;10.20;9.20;;;10.80;99.90;;;;;;5042751;28;20484;-39
2022/12/22 04:14:00;;;;;;;9.57;8.68;;;10.80;99.90;;;;;;5042328;28;20036;-41
2022/12/22 04:16:26;;;;;;;9.20;8.32;;;10.70;99.90;;;;;;5041993;28;20032;-39
2022/12/22 04:18:52;;;;;;;12.50;9.23;;;10.70;99.90;;;;;;5042798;28;20017;-39
2022/12/22 04:21:17;;;;;;;9.77;8.88;;;10.80;99.90;;;;;;5042486;28;20112;-39
2022/12/22 04:23:43;;;;;;;10.27;9.38;;;10.80;99.90;;;;;;5042676;28;20082;-39
2022/12/22 04:26:09;;;;;;;10.75;9.68;;;10.80;99.90;;;;;;5041773;28;20931;-40
2022/12/22 04:28:35;;;;;;;10.45;9.45;;;10.80;99.90;;;;;;5042159;28;20021;-40
2022/12/22 04:31:00;;;;;;;11.00;10.00;;;10.80;99.90;;;;;;5041082;28;20025;-40
2022/12/22 04:33:26;;;;;;;10.35;9.40;;;10.70;99.90;;;;;;5041494;28;20048;-40
2022/12/22 04:35:52;;;;;;;10.73;9.73;;;10.70;99.90;;;;;;5042375;28;20844;-40
2022/12/22 04:38:17;;;;;;;11.05;9.68;;;10.80;99.90;;;;;;5040289;28;20028;-40
2022/12/22 04:40:43;;;;;;;10.90;9.90;;;10.80;99.90;;;;;;5042214;28;20711;-39
2022/12/22 04:43:08;;;;;;;10.65;9.65;;;10.80;99.90;;;;;;5040486;28;20033;-39
2022/12/22 04:45:34;;;;;;;10.32;9.43;;;10.80;99.90;;;;;;5041101;28;20041;-38
2022/12/22 04:47:59;;;;;;;10.13;9.13;;;10.80;99.90;;;;;;5040709;28;20021;-38
2022/12/22 04:50:25;;;;;;;10.57;9.57;;;10.70;99.90;;;;;;5041578;28;20028;-39
2022/12/22 04:52:51;;;;;;;10.48;9.43;;;10.70;99.90;;;;;;5040303;28;20963;-39
2022/12/22 04:55:17;;;;;;;10.32;9.32;;;10.70;99.90;;;;;;5040933;28;20789;-41
2022/12/22 04:57:42;;;;;;;9.82;8.93;;;10.70;99.90;;;;;;5040942;28;20035;-41
2022/12/22 05:00:09;;;;;;;10.70;9.70;;;10.70;99.90;;;;;;5040533;28;20021;-41
2022/12/22 05:02:35;;;;;;;10.32;9.27;;;10.70;99.90;;;;;;5041160;28;20025;-40
2022/12/22 05:05:00;;;;;;;9.98;9.07;;;10.80;99.90;;;;;;5040595;28;20064;-39
2022/12/22 05:07:26;;;;;;;10.25;9.25;;;10.80;99.90;;;;;;5040871;28;20036;-39
2022/12/22 05:09:51;;;;;;;10.43;9.43;;;10.70;99.90;;;;;;5041197;28;20081;-39
2022/12/22 05:15:01;;;;;;;10.50;9.50;;;10.80;99.90;;;;;;5039889;28;20040;-40
2022/12/22 05:17:27;;;;;;;11.57;10.38;;;10.70;99.90;;;;;;5039508;28;20025;-40
2022/12/22 05:19:52;;;;;;;10.27;9.20;;;10.80;99.90;;;;;;5040546;28;20802;-41
2022/12/22 05:22:18;;;;;;;11.70;10.50;;;10.70;99.90;;;;;;5040413;28;20690;-39
2022/12/22 05:24:43;;;;;;;11.20;9.77;;;10.80;99.90;;;;;;5040592;28;20037;-37
2022/12/22 05:27:10;;;;;;;11.95;9.75;;;10.80;99.90;;;;;;5039586;28;20059;-42
2022/12/22 05:29:35;;;;;;;11.85;10.65;;;10.80;99.90;;;;;;5040429;28;20464;-39
2022/12/22 05:32:01;;;;;;;11.75;10.55;;;10.80;99.90;;;;;;5040230;28;20029;-40
2022/12/22 05:34:27;;;;;;;13.65;10.40;;;10.70;99.90;;;;;;5039940;28;20048;-39
2022/12/22 05:36:52;;;;;;;11.57;10.35;;;10.70;99.90;;;;;;5041078;28;20687;-40
2022/12/22 05:39:18;;;;;;;11.00;9.90;;;10.70;99.90;;;;;;5039845;28;20021;-40
2022/12/22 05:41:44;;;;;;;11.40;10.27;;;10.70;99.90;;;;;;5039695;28;20093;-41
2022/12/22 05:44:09;;;;;;;12.93;10.30;;;10.70;99.90;;;;;;5039593;28;20070;-38
2022/12/22 05:46:35;;;;;;;11.18;9.55;;;10.70;99.90;;;;;;5040385;28;20033;-37
2022/12/22 05:49:00;;;;;;;10.63;9.52;;;10.70;99.90;;;;;;5039968;28;20096;-41
2022/12/22 05:51:26;;;;;;;9.77;8.77;;;10.70;99.90;;;;;;5040850;28;20025;-40
2022/12/22 05:53:51;;;;;;;10.70;9.60;;;10.60;99.90;;;;;;5040918;28;20111;-39
2022/12/22 05:56:17;;;;;;;10.60;9.50;;;10.60;99.90;;;;;;5039429;28;20025;-39
2022/12/22 05:58:42;;;;;;;10.38;9.27;;;10.70;99.90;;;;;;5041430;28;20153;-39
2022/12/22 06:01:08;;;;;;;9.55;8.55;;;10.70;99.90;;;;;;5040065;28;20108;-38
2022/12/22 06:03:33;;;;;;;10.43;8.95;;;10.60;99.90;;;;;;5040475;28;20048;-38
2022/12/22 06:05:59;;;;;;;11.13;9.27;;;10.60;99.90;;;;;;5040325;28;20178;-40
2022/12/22 06:08:25;;;;;;;12.38;10.00;;;10.60;99.90;;;;;;5040075;28;20033;-39
2022/12/22 06:10:53;;;;;;;11.82;9.43;;;10.70;99.90;;;;;;5039516;28;20764;-40
2022/12/22 06:13:19;;;;;;;14.52;11.35;;;10.60;99.90;;;;;;5039987;28;20610;-40
2022/12/22 06:15:46;;;;;;;14.52;11.00;;;10.70;99.90;;;;;;5040492;28;20096;-37
2022/12/22 06:18:12;;;;;;;15.55;10.65;;;10.70;99.90;;;;;;5039718;28;20037;-39
2022/12/22 06:20:37;;;;;;;13.63;11.00;;;10.70;99.90;;;;;;5040447;28;20029;-39
2022/12/22 06:23:03;;;;;;;14.02;11.18;;;10.70;99.90;;;;;;5039300;28;20106;-39
2022/12/22 06:25:28;;;;;;;13.73;11.05;;;10.70;99.90;;;;;;5040022;28;20037;-40
2022/12/22 06:27:54;;;;;;;12.75;9.90;;;10.70;99.90;;;;;;5040062;28;20045;-40
2022/12/22 06:30:19;;;;;;;13.25;10.30;;;10.70;99.90;;;;;;5039181;28;20039;-39
2022/12/22 06:32:45;;;;;;;13.50;11.45;;;10.70;99.90;;;;;;5041113;28;20045;-34
2022/12/22 06:35:10;;;;;;;14.30;11.00;;;10.60;99.90;;;;;;5040200;28;20355;-41
2022/12/22 06:37:36;;;;;;;13.68;10.75;;;10.60;99.90;;;;;;5039642;28;20021;-40
2022/12/22 06:40:02;;;;;;;13.27;10.85;;;10.60;99.90;;;;;;5040289;28;20071;-40
2022/12/22 06:45:12;;;;;;;13.73;10.10;;;10.60;99.90;;;;;;5019173;28;20138;-40
2022/12/22 06:47:37;;;;;;;13.65;10.70;;;10.60;99.90;;;;;;5037103;28;20029;-41
2022/12/22 06:50:03;;;;;;;12.95;9.98;;;10.60;99.90;;;;;;5041863;28;20032;-37
2022/12/22 06:52:29;;;;;;;12.70;10.13;;;10.60;99.90;;;;;;5037998;28;20036;-38
2022/12/22 06:54:54;;;;;;;13.32;10.38;;;10.60;99.90;;;;;;5040444;28;20028;-39
2022/12/22 06:57:20;;;;;;;13.48;10.20;;;10.60;99.90;;;;;;5040687;28;20056;-38
2022/12/22 06:59:45;;;;;;;13.52;10.68;;;10.60;99.90;;;;;;5042191;28;20073;-39
2022/12/22 07:02:11;;;;;;;14.95;10.98;;;10.60;99.90;;;;;;5042694;28;20017;-38
2022/12/22 07:04:37;;;;;;;13.70;10.93;;;10.60;99.90;;;;;;5043634;28;20044;-39
2022/12/22 07:07:03;;;;;;;11.48;9.45;;;10.60;99.90;;;;;;5042030;28;20045;-41
2022/12/22 07:09:28;;;;;;;10.95;9.15;;;10.60;99.90;;;;;;5043606;28;20540;-40
2022/12/22 07:11:54;;;;;;;10.73;8.60;;;10.50;99.90;;;;;;5042839;28;20025;-40
2022/12/22 07:14:20;;;;;;;10.20;8.38;;;10.50;99.90;;;;;;5041560;28;20021;-39
2022/12/22 07:16:46;;;;;;;10.60;8.30;;;10.50;99.90;;;;;;5042211;28;20025;-38
2022/12/22 07:19:12;;;;;;;9.25;7.72;;;10.50;99.90;;;;;;5041439;28;20025;-39
2022/12/22 07:21:38;;;;;;;8.98;7.60;;;10.50;99.90;;;;;;5042453;28;20491;-40
2022/12/22 07:24:04;;;;;;;9.57;8.07;;;10.50;99.90;;;;;;5041739;28;20043;-40
2022/12/22 07:26:29;;;;;;;9.43;7.65;;;10.50;99.90;;;;;;5041328;28;20025;-39
2022/12/22 07:28:55;;;;;;;8.65;7.35;;;10.40;99.90;;;;;;5041935;28;20017;-39
2022/12/22 07:31:21;;;;;;;9.90;8.10;;;10.40;99.90;;;;;;5042116;28;20158;-40
2022/12/22 07:33:46;;;;;;;10.75;8.73;;;10.40;99.90;;;;;;5041562;28;20053;-40
2022/12/22 07:36:13;;;;;;;12.75;10.35;;;10.40;99.90;;;;;;5041191;28;20028;-41
2022/12/22 07:38:41;;;;;;;11.23;9.07;;;10.30;99.90;;;;;;5043106;28;20108;-40
2022/12/22 07:43:56;;;;;;;14.25;11.38;;;10.30;99.90;;;;;;5029915;28;20062;-38
2022/12/22 07:46:23;;;;;;;14.65;12.05;;;10.30;99.90;;;;;;5041628;28;20068;-39
2022/12/22 07:51:35;;;;;;;19.17;13.88;;;10.30;99.90;;;;;;5042124;28;20044;-39
2022/12/22 07:54:03;;;;;;;17.30;12.90;;;10.30;99.90;;;;;;5042310;28;20021;-40
2022/12/22 07:56:29;;;;;;;22.13;16.30;;;10.20;99.90;;;;;;5041734;28;20032;-38
2022/12/22 07:58:54;;;;;;;19.38;14.70;;;10.20;99.90;;;;;;5041830;28;20021;-39
2022/12/22 08:01:20;;;;;;;19.77;15.00;;;10.10;99.90;;;;;;5042103;28;20114;-39
2022/12/22 08:03:45;;;;;;;21.98;15.57;;;10.10;99.90;;;;;;5043411;28;20021;-40
2022/12/22 08:06:11;;;;;;;20.38;14.43;;;10.10;99.90;;;;;;5041986;28;20996;-39
2022/12/22 08:08:36;;;;;;;21.98;14.55;;;10.10;99.90;;;;;;5041903;28;20887;-40
2022/12/22 08:11:03;;;;;;;22.17;16.23;;;10.10;99.90;;;;;;5041619;28;20388;-39
2022/12/22 08:13:29;;;;;;;24.25;16.15;;;10.10;99.90;;;;;;5043357;28;20047;-40
2022/12/22 08:15:54;;;;;;;25.13;17.33;;;10.10;99.90;;;;;;5042493;28;20540;-40
2022/12/22 08:18:20;;;;;;;22.45;15.65;;;10.10;99.90;;;;;;5041844;28;20124;-40
2022/12/22 08:20:50;;;;;;;21.70;15.07;;;10.10;99.90;;;;;;5042005;28;20021;-39
2022/12/22 08:23:16;;;;;;;22.83;15.90;;;10.10;99.90;;;;;;5041320;28;20396;-40
2022/12/22 08:25:43;;;;;;;24.08;15.57;;;10.10;99.90;;;;;;5041385;28;20037;-40
2022/12/22 08:28:08;;;;;;;24.77;15.73;;;10.10;99.90;;;;;;5041645;28;20111;-40
2022/12/22 08:30:34;;;;;;;23.33;15.63;;;10.20;99.90;;;;;;5041241;28;20043;-40
2022/12/22 08:33:00;;;;;;;21.58;14.60;;;10.20;99.90;;;;;;5041141;28;20049;-42
2022/12/22 08:35:26;;;;;;;23.40;14.23;;;10.20;99.90;;;;;;5042356;28;20031;-37
2022/12/22 08:37:52;;;;;;;22.00;13.48;;;10.30;99.90;;;;;;5040985;28;20037;-40
2022/12/22 08:40:23;;;;;;;18.73;13.10;;;10.30;99.90;;;;;;5041093;28;20025;-40
2022/12/22 08:42:53;;;;;;;19.38;12.82;;;10.30;99.90;;;;;;5042713;28;20067;-38
2022/12/22 08:45:19;;;;;;;20.38;12.77;;;10.30;99.90;;;;;;5040474;28;20419;-40
2022/12/22 08:47:45;;;;;;;18.35;12.77;;;10.40;99.90;;;;;;5041632;28;20374;-40
2022/12/22 08:50:10;;;;;;;15.85;11.32;;;10.30;99.90;;;;;;5041120;28;20064;-40
2022/12/22 08:52:36;;;;;;;25.55;15.25;;;10.30;99.90;;;;;;5041221;28;20112;-40
2022/12/22 08:55:01;;;;;;;22.98;14.63;;;10.30;99.90;;;;;;5041141;28;20071;-40
2022/12/22 08:57:27;;;;;;;23.33;14.45;;;10.20;99.90;;;;;;5041300;28;20388;-40
2022/12/22 08:59:53;;;;;;;23.45;14.57;;;10.20;99.90;;;;;;5040820;28;20032;-40
2022/12/22 09:02:18;;;;;;;21.00;13.80;;;10.20;99.90;;;;;;5040962;28;20111;-39
2022/12/22 09:04:44;;;;;;;22.20;14.60;;;10.20;99.90;;;;;;5041187;28;20025;-41
2022/12/22 09:07:10;;;;;;;18.88;12.13;;;10.20;99.90;;;;;;5040561;28;20086;-39
2022/12/22 09:09:36;;;;;;;17.17;11.63;;;10.20;99.90;;;;;;5041704;28;20025;-41
2022/12/22 09:12:02;;;;;;;21.80;13.70;;;10.10;99.90;;;;;;5039955;28;20036;-40
2022/12/22 09:14:29;;;;;;;23.02;13.25;;;10.10;99.90;;;;;;5041903;28;20035;-40
2022/12/22 09:16:55;;;;;;;18.10;11.63;;;10.10;99.90;;;;;;5041071;28;20016;-41
2022/12/22 09:19:21;;;;;;;24.52;13.60;;;10.00;99.90;;;;;;5039567;28;20210;-39
2022/12/22 09:21:47;;;;;;;23.80;14.30;;;10.00;99.90;;;;;;5040384;28;20037;-40
2022/12/22 09:24:12;;;;;;;19.55;12.07;;;10.00;99.90;;;;;;5040754;28;20136;-40
2022/12/22 09:26:38;;;;;;;22.90;13.60;;;9.90;99.90;;;;;;5039971;28;20025;-40
2022/12/22 09:29:04;;;;;;;24.83;14.07;;;9.80;99.90;;;;;;5037958;28;20082;-41
2022/12/22 09:31:29;;;;;;;24.42;14.15;;;9.80;99.90;;;;;;5040406;28;20111;-39
2022/12/22 09:33:55;;;;;;;25.30;13.52;;;9.80;99.90;;;;;;5039411;28;20493;-38
2022/12/22 09:36:24;;;;;;;23.05;13.02;;;9.70;99.90;;;;;;5040533;28;20673;-40
2022/12/22 09:38:50;;;;;;;20.75;12.15;;;9.60;99.90;;;;;;5040983;28;20467;-40
2022/12/22 09:41:22;;;;;;;22.95;13.00;;;9.60;99.90;;;;;;5039151;28;20555;-40
2022/12/22 09:43:47;;;;;;;21.40;12.85;;;9.60;99.90;;;;;;5040216;28;20043;-40
2022/12/22 09:46:21;;;;;;;23.20;12.73;;;9.60;99.90;;;;;;5040399;28;20033;-40
2022/12/22 09:48:46;;;;;;;21.08;11.75;;;9.50;99.90;;;;;;5040111;28;20025;-38
2022/12/22 09:51:13;;;;;;;17.90;10.45;;;9.50;99.90;;;;;;5039725;28;20594;-40
2022/12/22 09:53:41;;;;;;;19.25;11.45;;;9.50;99.90;;;;;;5040298;28;20479;-40
2022/12/22 09:56:12;;;;;;;23.15;12.60;;;9.50;99.90;;;;;;5039759;28;20025;-39
2022/12/22 09:58:38;;;;;;;28.05;13.98;;;9.50;99.90;;;;;;5040134;28;20059;-39
2022/12/22 10:01:27;;;;;;;20.92;11.98;;;9.50;99.90;;;;;;5038883;28;20115;-38
2022/12/22 10:04:03;;;;;;;22.40;11.68;;;9.40;99.90;;;;;;5028295;28;20037;-38
2022/12/22 10:06:58;;;;;;;19.25;11.55;;;9.40;99.90;;;;;;5040398;28;20049;-40
2022/12/22 10:09:28;;;;;;;24.52;12.57;;;9.40;99.90;;;;;;5039395;28;20032;-38
2022/12/22 10:11:57;;;;;;;26.27;13.13;;;9.40;99.90;;;;;;5040244;28;20036;-40
2022/12/22 10:14:41;;;;;;;25.50;13.82;;;9.30;99.90;;;;;;5039189;28;20613;-39
2022/12/22 10:17:24;;;;;;;22.23;13.68;;;9.30;99.90;;;;;;5019554;28;20033;-40
2022/12/22 10:19:52;;;;;;;26.98;14.35;;;9.20;99.90;;;;;;5037604;28;20039;-40
2022/12/22 10:22:43;;;;;;;21.98;12.05;;;9.20;99.90;;;;;;5039406;28;20033;-39
2022/12/22 10:25:28;;;;;;;20.27;10.63;;;9.20;99.90;;;;;;5039274;28;20055;-40
2022/12/22 10:27:56;;;;;;;17.83;9.45;;;9.10;99.90;;;;;;5040021;28;20537;-39
2022/12/22 10:30:24;;;;;;;16.83;9.15;;;9.10;99.90;;;;;;5042938;28;20025;-39
2022/12/22 10:33:13;;;;;;;16.27;9.85;;;9.20;99.90;;;;;;5044080;28;20057;-39
2022/12/22 10:35:51;;;;;;;19.52;9.68;;;9.20;99.90;;;;;;5043430;28;20079;-38
2022/12/22 10:38:30;;;;;;;22.42;10.75;;;9.20;99.90;;;;;;5042730;28;20762;-39
2022/12/22 10:41:10;;;;;;;17.45;9.77;;;9.30;99.90;;;;;;5043217;28;20112;-40
2022/12/22 10:43:39;;;;;;;18.00;9.60;;;9.40;99.90;;;;;;5044156;28;20040;-39
2022/12/22 10:46:06;;;;;;;19.83;10.55;;;9.40;99.90;;;;;;5042309;28;20772;-40
2022/12/22 10:48:37;;;;;;;18.13;10.40;;;9.40;99.90;;;;;;5043849;28;20144;-39
2022/12/22 10:51:09;;;;;;;16.92;9.13;;;9.40;99.90;;;;;;5041908;28;20114;-39
2022/12/22 10:53:54;;;;;;;19.50;10.35;;;9.30;99.90;;;;;;5043653;28;20032;-39
2022/12/22 10:56:29;;;;;;;17.02;9.70;;;9.30;99.90;;;;;;5043123;28;20028;-40
2022/12/22 10:59:00;;;;;;;16.27;9.70;;;9.20;99.90;;;;;;5043737;28;20035;-39
2022/12/22 11:01:31;;;;;;;14.55;9.07;;;9.20;99.90;;;;;;5043657;28;20036;-39
2022/12/22 11:04:13;;;;;;;14.23;8.88;;;9.20;99.90;;;;;;5043465;28;20243;-40
2022/12/22 11:06:41;;;;;;;15.27;8.47;;;9.30;99.90;;;;;;5043820;28;20048;-37
2022/12/22 11:09:09;;;;;;;13.15;8.75;;;9.30;99.90;;;;;;5043280;28;20029;-38
2022/12/22 11:11:50;;;;;;;15.15;9.82;;;9.30;99.90;;;;;;5042379;28;20025;-39
2022/12/22 11:14:53;;;;;;;16.80;9.50;;;9.30;99.90;;;;;;5043387;28;20032;-39
2022/12/22 11:17:49;;;;;;;14.48;8.75;;;9.40;99.90;;;;;;5033596;28;20043;-39
2022/12/22 11:20:44;;;;;;;14.27;9.15;;;9.50;99.90;;;;;;5042367;28;20048;-39
2022/12/22 11:23:34;;;;;;;16.00;9.57;;;9.50;99.90;;;;;;5034684;28;20029;-39
2022/12/22 11:26:02;;;;;;;15.05;9.45;;;9.60;99.90;;;;;;5042042;28;20047;-41
2022/12/22 11:28:48;;;;;;;17.00;9.63;;;9.60;99.90;;;;;;5042518;28;20081;-41
2022/12/22 11:31:31;;;;;;;13.63;8.60;;;9.70;99.90;;;;;;5042214;28;20036;-41
2022/12/22 11:34:25;;;;;;;20.02;11.45;;;9.80;99.90;;;;;;5041986;28;20079;-40
2022/12/22 11:37:25;;;;;;;17.60;11.30;;;9.90;99.90;;;;;;5042403;28;20056;-38
2022/12/22 11:39:56;;;;;;;20.20;12.18;;;9.90;99.90;;;;;;5022026;28;20052;-40
2022/12/22 11:42:24;;;;;;;19.92;12.05;;;9.90;99.90;;;;;;5038602;28;20189;-40
2022/12/22 11:45:10;;;;;;;21.00;12.77;;;9.90;99.90;;;;;;5043509;28;20021;-39
2022/12/22 11:47:41;;;;;;;22.45;13.55;;;10.00;99.90;;;;;;5041745;28;20555;-39
2022/12/22 11:50:32;;;;;;;21.35;14.05;;;9.90;99.90;;;;;;5022236;28;20034;-38
2022/12/22 11:53:14;;;;;;;20.70;13.45;;;10.00;99.90;;;;;;5040153;28;20126;-39
2022/12/22 11:56:01;;;;;;;23.45;14.00;;;10.00;99.90;;;;;;5042143;28;20050;-40
2022/12/22 11:58:48;;;;;;;20.50;12.93;;;10.00;99.90;;;;;;5042335;28;20028;-39
2022/12/22 12:01:32;;;;;;;22.45;14.50;;;10.00;99.90;;;;;;5041274;28;20110;-40
2022/12/22 12:04:26;;;;;;;22.60;14.18;;;10.00;99.90;;;;;;5040259;28;20027;-40
2022/12/22 12:07:17;;;;;;;19.85;12.80;;;10.00;99.90;;;;;;5042207;28;20031;-39
2022/12/22 12:10:12;;;;;;;17.17;12.00;;;9.90;99.90;;;;;;5034436;28;20045;-40
2022/12/22 12:13:00;;;;;;;18.30;12.30;;;9.80;99.90;;;;;;5042469;28;20063;-40
2022/12/22 12:15:29;;;;;;;19.70;12.50;;;9.80;99.90;;;;;;5042776;28;20040;-39
2022/12/22 12:18:34;;;;;;;18.33;11.60;;;9.80;99.90;;;;;;5042660;28;20029;-38
2022/12/22 12:21:20;;;;;;;18.10;12.30;;;9.90;99.90;;;;;;5042017;28;20423;-40
2022/12/22 12:24:14;;;;;;;20.42;13.13;;;9.90;99.90;;;;;;5041706;28;20040;-41
2022/12/22 12:27:01;;;;;;;17.15;11.05;;;10.00;99.90;;;;;;5022084;28;20855;-39
2022/12/22 12:29:34;;;;;;;16.33;10.38;;;10.10;99.90;;;;;;5041263;28;20031;-38
2022/12/22 12:32:23;;;;;;;15.85;10.80;;;10.20;99.90;;;;;;5041336;28;20064;-40
2022/12/22 12:34:55;;;;;;;14.25;9.32;;;10.30;99.90;;;;;;5041927;28;20040;-39
2022/12/22 12:37:30;;;;;;;12.23;7.90;;;10.30;99.90;;;;;;5040627;28;20035;-40
2022/12/22 12:40:30;;;;;;;12.68;8.48;;;10.40;99.90;;;;;;5041310;28;20033;-39
2022/12/22 12:42:58;;;;;;;13.07;8.10;;;10.40;99.90;;;;;;5040941;28;20414;-38
2022/12/22 12:45:41;;;;;;;12.77;8.80;;;10.40;99.90;;;;;;5041819;28;20119;-40
2022/12/22 12:48:19;;;;;;;11.50;8.68;;;10.50;99.90;;;;;;5041222;28;20063;-39
2022/12/22 12:50:46;;;;;;;13.07;8.60;;;10.50;99.90;;;;;;5040552;28;20821;-40
2022/12/22 12:53:12;;;;;;;14.55;9.50;;;10.50;99.90;;;;;;5040264;28;20029;-38
2022/12/22 12:55:37;;;;;;;16.02;8.40;;;10.60;99.90;;;;;;5041559;28;20028;-40
2022/12/22 12:58:04;;;;;;;14.68;8.90;;;10.50;99.90;;;;;;5040354;28;20036;-38
2022/12/22 13:00:30;;;;;;;13.98;9.30;;;10.50;99.90;;;;;;5041008;28;20028;-40
2022/12/22 13:02:57;;;;;;;12.30;9.15;;;10.50;99.90;;;;;;5041171;28;20037;-41
2022/12/22 13:05:35;;;;;;;15.13;9.98;;;10.50;99.90;;;;;;5039815;28;20037;-40
2022/12/22 13:08:17;;;;;;;15.40;9.27;;;10.40;99.90;;;;;;5041080;28;20037;-40
2022/12/22 13:10:44;;;;;;;16.55;9.35;;;10.40;99.90;;;;;;5040665;28;20051;-38
2022/12/22 13:13:30;;;;;;;14.43;9.35;;;10.40;99.90;;;;;;5040368;28;20056;-40
2022/12/22 13:16:01;;;;;;;16.17;10.25;;;10.40;99.90;;;;;;5040493;28;20043;-40
2022/12/22 13:18:33;;;;;;;14.02;9.20;;;10.30;99.90;;;;;;5040842;28;20067;-39
2022/12/22 13:21:04;;;;;;;16.27;10.40;;;10.30;99.90;;;;;;5040289;28;20025;-36
2022/12/22 13:23:39;;;;;;;15.30;10.18;;;10.30;99.90;;;;;;5041427;28;20178;-39
2022/12/22 13:26:09;;;;;;;17.17;10.95;;;10.20;99.90;;;;;;5039654;28;20037;-39
2022/12/22 13:28:36;;;;;;;14.73;10.30;;;10.20;99.90;;;;;;5041461;28;20028;-39
2022/12/22 13:31:23;;;;;;;16.13;11.40;;;10.20;99.90;;;;;;5040305;28;20068;-37
2022/12/22 13:34:06;;;;;;;15.15;10.82;;;10.20;99.90;;;;;;5020085;28;20128;-39
2022/12/22 13:36:32;;;;;;;16.85;12.07;;;10.20;99.90;;;;;;5039186;28;20020;-37
2022/12/22 13:39:03;;;;;;;19.63;13.52;;;10.10;99.90;;;;;;5039961;28;20808;-38
2022/12/22 13:41:31;;;;;;;21.90;13.10;;;10.10;99.90;;;;;;5040696;28;20627;-38
2022/12/22 13:44:04;;;;;;;18.98;13.55;;;10.10;99.90;;;;;;5040844;28;20383;-39
2022/12/22 13:46:33;;;;;;;18.40;13.40;;;10.10;99.90;;;;;;5040199;28;20598;-38
2022/12/22 13:49:03;;;;;;;18.50;13.45;;;10.10;99.90;;;;;;5040574;28;20610;-40
2022/12/22 13:51:34;;;;;;;21.02;13.57;;;10.10;99.90;;;;;;5040786;28;20029;-40
2022/12/22 13:54:03;;;;;;;20.67;14.68;;;10.10;99.90;;;;;;5040537;28;20021;-40
2022/12/22 13:56:37;;;;;;;24.88;15.68;;;10.20;99.90;;;;;;5041276;28;20112;-40
2022/12/22 13:59:04;;;;;;;20.98;15.00;;;10.20;99.90;;;;;;5040381;28;20029;-40
2022/12/22 14:01:30;;;;;;;18.85;13.95;;;10.20;99.90;;;;;;5039418;28;20111;-40
2022/12/22 14:04:02;;;;;;;20.13;13.98;;;10.20;99.90;;;;;;5042104;28;20024;-40
2022/12/22 14:06:36;;;;;;;22.02;15.10;;;10.20;99.90;;;;;;5044641;28;20502;-40
2022/12/22 14:09:09;;;;;;;21.48;14.48;;;10.20;99.90;;;;;;5043802;28;20061;-37
2022/12/22 14:11:34;;;;;;;;;;;10.20;99.90;;;;;;5045316;28;20033;-37
2022/12/22 14:14:00;;;;;;;20.13;13.88;;;10.20;99.90;;;;;;5043739;28;19912;-40
2022/12/22 14:16:25;;;;;;;18.25;14.38;;;10.20;99.90;;;;;;5044034;28;20033;-39
2022/12/22 14:18:52;;;;;;;21.58;15.27;;;10.20;99.90;;;;;;5044235;28;20028;-39
2022/12/22 14:21:18;;;;;;;21.20;15.40;;;10.20;99.90;;;;;;5042548;28;20742;-41
2022/12/22 14:23:45;;;;;;;20.60;15.82;;;10.20;99.90;;;;;;5043871;28;20411;-39
2022/12/22 14:26:17;;;;;;;21.90;15.30;;;10.20;99.90;;;;;;5043446;28;20044;-39
2022/12/22 14:28:49;;;;;;;20.48;15.15;;;10.20;99.90;;;;;;5040206;28;20439;-38
2022/12/22 14:31:16;;;;;;;19.10;14.80;;;10.10;99.90;;;;;;5043139;28;20845;-41
2022/12/22 14:34:02;;;;;;;20.90;15.07;;;10.20;99.90;;;;;;5043826;28;20493;-39
2022/12/22 14:36:35;;;;;;;21.80;14.95;;;10.10;99.90;;;;;;5043941;28;20118;-38
2022/12/22 14:39:09;;;;;;;21.73;16.05;;;10.10;99.90;;;;;;5040188;28;20025;-41
2022/12/22 14:41:50;;;;;;;24.33;18.10;;;10.20;99.90;;;;;;5044702;28;20104;-40
2022/12/22 14:44:24;;;;;;;23.80;17.60;;;10.20;99.90;;;;;;5042692;28;20025;-40
2022/12/22 14:47:11;;;;;;;23.08;17.90;;;10.10;99.90;;;;;;5043993;28;20156;-40
2022/12/22 14:49:45;;;;;;;24.52;17.02;;;10.10;99.90;;;;;;5042775;28;20032;-41
2022/12/22 14:52:34;;;;;;;22.45;16.50;;;10.10;99.90;;;;;;5043792;28;20037;-39
2022/12/22 14:55:02;;;;;;;23.20;17.90;;;10.10;99.90;;;;;;5032313;28;20220;-41
2022/12/22 14:57:39;;;;;;;22.33;16.88;;;10.10;99.90;;;;;;5044685;28;20021;-40
2022/12/22 15:00:23;;;;;;;21.33;16.75;;;10.10;99.90;;;;;;5043982;28;20056;-41
2022/12/22 15:02:55;;;;;;;22.45;16.42;;;10.10;99.90;;;;;;5043374;28;20056;-41
2022/12/22 15:05:27;;;;;;;23.40;16.85;;;10.20;99.90;;;;;;5031456;28;20041;-39
2022/12/22 15:07:56;;;;;;;22.98;16.88;;;10.20;99.90;;;;;;5042771;28;20031;-40
2022/12/22 15:10:24;;;;;;;23.65;16.80;;;10.20;99.90;;;;;;5040703;28;20106;-37
2022/12/22 15:12:55;;;;;;;22.42;17.08;;;10.20;99.90;;;;;;5041316;28;20025;-40
2022/12/22 15:15:21;;;;;;;22.50;17.50;;;10.20;99.90;;;;;;5040119;28;20017;-39
2022/12/22 15:17:50;;;;;;;22.95;18.00;;;10.30;99.90;;;;;;5041412;28;20048;-39
2022/12/22 15:20:19;;;;;;;21.73;17.20;;;10.20;99.90;;;;;;5041521;28;20216;-39
2022/12/22 15:22:45;;;;;;;22.15;17.48;;;10.20;99.90;;;;;;5043867;28;20021;-39
2022/12/22 15:25:13;;;;;;;26.02;19.02;;;10.20;99.90;;;;;;5042818;28;20041;-39
2022/12/22 15:27:38;;;;;;;24.65;18.35;;;10.20;99.90;;;;;;5042998;28;20817;-39
2022/12/22 15:30:04;;;;;;;22.92;18.10;;;10.20;99.90;;;;;;5042478;28;20086;-40
2022/12/22 15:32:30;;;;;;;23.00;17.77;;;10.20;99.90;;;;;;5022544;28;20045;-38
2022/12/22 15:34:55;;;;;;;23.48;17.90;;;10.20;99.90;;;;;;5036830;28;20038;-39
2022/12/22 15:37:21;;;;;;;22.33;18.00;;;10.20;99.90;;;;;;5042992;28;20108;-37
2022/12/22 15:39:47;;;;;;;22.95;17.88;;;10.20;99.90;;;;;;5042187;28;20033;-41
2022/12/22 15:42:12;;;;;;;21.50;17.05;;;10.20;99.90;;;;;;5042657;28;20116;-38
2022/12/22 15:44:38;;;;;;;23.00;17.63;;;10.20;99.90;;;;;;5042822;28;21988;-37
2022/12/22 15:47:03;;;;;;;19.42;16.33;;;10.20;99.90;;;;;;5042041;28;20605;-39
2022/12/22 15:49:30;;;;;;;21.60;17.75;;;10.20;99.90;;;;;;5042948;28;20024;-40
2022/12/22 15:51:59;;;;;;;25.05;18.38;;;10.20;99.90;;;;;;5043306;28;20025;-40
2022/12/22 15:54:26;;;;;;;23.65;18.23;;;10.20;99.90;;;;;;5042473;28;20392;-40
2022/12/22 15:56:53;;;;;;;21.80;16.88;;;10.20;99.90;;;;;;5043009;28;20535;-37
2022/12/22 15:59:24;;;;;;;22.48;18.00;;;10.20;99.90;;;;;;5042309;28;20028;-37
2022/12/22 16:01:50;;;;;;;22.63;16.80;;;10.10;99.90;;;;;;5038805;28;20029;-40
2022/12/22 16:04:16;;;;;;;21.52;17.35;;;10.10;99.90;;;;;;5041495;28;20036;-39
2022/12/22 16:06:42;;;;;;;21.55;16.92;;;10.10;99.90;;;;;;5042056;28;20544;-39
2022/12/22 16:09:17;;;;;;;22.10;17.45;;;10.10;99.90;;;;;;5042458;28;20033;-40
2022/12/22 16:11:42;;;;;;;16.65;13.60;;;10.00;99.90;;;;;;5041633;28;20132;-40
2022/12/22 16:14:11;;;;;;;18.17;15.65;;;10.00;99.90;;;;;;5041766;28;20033;-38
2022/12/22 16:16:38;;;;;;;17.90;14.05;;;10.00;99.90;;;;;;5041906;28;20041;-36
2022/12/22 16:19:04;;;;;;;21.60;15.63;;;9.90;99.90;;;;;;5022052;28;20039;-38
2022/12/22 16:21:31;;;;;;;18.63;15.63;;;9.90;99.90;;;;;;5035479;28;20033;-39
2022/12/22 16:24:00;;;;;;;20.50;16.15;;;10.00;99.90;;;;;;5042179;28;20032;-39
2022/12/22 16:26:26;;;;;;;20.83;16.08;;;9.90;99.90;;;;;;5041117;28;20037;-39
2022/12/22 16:28:51;;;;;;;20.10;15.52;;;9.90;99.90;;;;;;5041205;28;20086;-36
2022/12/22 16:31:22;;;;;;;20.35;15.02;;;9.90;99.90;;;;;;5041973;28;20033;-37